sensor_id;sensor_type;location;lat;lon;timestamp;temperature;humidity
2497;DHT22;1259;48.306;14.374;2023-07-13T00:01:27;20.00;99.90
2497;DHT22;1259;48.306;14.374;2023-07-13T00:03:54;19.80;99.90
2497;DHT22;1259;48.306;14.374;2023-07-13T00:06:21;20.00;99.90
2497;DHT22;1259;48.306;14.374;2023-07-13T00:08:48;19.80;99.90
2497;DHT22;1259;48.306;14.374;2023-07-13T00:11:15;19.70;99.90
2497;DHT22;1259;48.306;14.374;2023-07-13T00:13:44;19.60;99.90
2497;DHT22;1259;48.306;14.374;2023-07-13T00:16:11;19.50;99.90
2497;DHT22;1259;48.306;14.374;2023-07-13T00:18:39;19.50;99.90
2497;DHT22;1259;48.306;14.374;2023-07-13T00:21:06;19.40;99.90
2497;DHT22;1259;48.306;14.374;2023-07-13T00:23:33;19.40;99.90
2497;DHT22;1259;48.306;14.374;2023-07-13T00:26:00;19.60;99.90
2497;DHT22;1259;48.306;14.374;2023-07-13T00:28:27;19.60;99.90
2497;DHT22;1259;48.306;14.374;2023-07-13T00:30:55;19.60;99.90
2497;DHT22;1259;48.306;14.374;2023-07-13T00:33:22;19.70;99.90
2497;DHT22;1259;48.306;14.374;2023-07-13T00:35:49;19.70;99.90
2497;DHT22;1259;48.306;14.374;2023-07-13T00:38:16;19.60;99.90
2497;DHT22;1259;48.306;14.374;2023-07-13T00:40:43;19.60;99.90
2497;DHT22;1259;48.306;14.374;2023-07-13T00:43:11;19.50;99.90
2497;DHT22;1259;48.306;14.374;2023-07-13T00:48:27;19.70;99.90
2497;DHT22;1259;48.306;14.374;2023-07-13T00:50:55;19.70;99.90
2497;DHT22;1259;48.306;14.374;2023-07-13T00:53:23;19.70;99.90
2497;DHT22;1259;48.306;14.374;2023-07-13T00:55:51;19.80;99.90
2497;DHT22;1259;48.306;14.374;2023-07-13T00:58:20;20.00;99.90
2497;DHT22;1259;48.306;14.374;2023-07-13T01:00:47;20.10;99.90
2497;DHT22;1259;48.306;14.374;2023-07-13T01:03:16;20.10;99.90
2497;DHT22;1259;48.306;14.374;2023-07-13T01:05:44;20.00;99.90
2497;DHT22;1259;48.306;14.374;2023-07-13T01:08:13;19.90;99.90
2497;DHT22;1259;48.306;14.374;2023-07-13T01:10:40;20.00;99.90
2497;DHT22;1259;48.306;14.374;2023-07-13T01:13:08;19.70;99.90
2497;DHT22;1259;48.306;14.374;2023-07-13T01:15:38;19.50;99.90
2497;DHT22;1259;48.306;14.374;2023-07-13T01:18:05;19.40;99.90
2497;DHT22;1259;48.306;14.374;2023-07-13T01:20:33;19.40;99.90
2497;DHT22;1259;48.306;14.374;2023-07-13T01:23:04;19.30;99.90
2497;DHT22;1259;48.306;14.374;2023-07-13T01:25:31;19.50;99.90
2497;DHT22;1259;48.306;14.374;2023-07-13T01:27:58;19.40;99.90
2497;DHT22;1259;48.306;14.374;2023-07-13T01:30:25;19.30;99.90
2497;DHT22;1259;48.306;14.374;2023-07-13T01:32:52;19.30;99.90
2497;DHT22;1259;48.306;14.374;2023-07-13T01:35:19;19.30;99.90
2497;DHT22;1259;48.306;14.374;2023-07-13T01:37:46;19.40;99.90
2497;DHT22;1259;48.306;14.374;2023-07-13T01:40:14;19.40;99.90
2497;DHT22;1259;48.306;14.374;2023-07-13T01:42:41;19.50;99.90
2497;DHT22;1259;48.306;14.374;2023-07-13T01:45:08;19.40;99.90
2497;DHT22;1259;48.306;14.374;2023-07-13T01:47:35;19.40;99.90
2497;DHT22;1259;48.306;14.374;2023-07-13T01:50:02;19.40;99.90
2497;DHT22;1259;48.306;14.374;2023-07-13T01:52:29;19.50;99.90
2497;DHT22;1259;48.306;14.374;2023-07-13T01:54:56;19.40;99.90
2497;DHT22;1259;48.306;14.374;2023-07-13T01:57:24;19.40;99.90
2497;DHT22;1259;48.306;14.374;2023-07-13T01:59:51;19.50;99.90
2497;DHT22;1259;48.306;14.374;2023-07-13T02:02:18;19.50;99.90
2497;DHT22;1259;48.306;14.374;2023-07-13T02:04:45;19.50;99.90
2497;DHT22;1259;48.306;14.374;2023-07-13T02:07:12;19.50;99.90
2497;DHT22;1259;48.306;14.374;2023-07-13T02:09:40;19.40;99.90
2497;DHT22;1259;48.306;14.374;2023-07-13T02:12:08;19.40;99.90
2497;DHT22;1259;48.306;14.374;2023-07-13T02:14:36;19.40;99.90
2497;DHT22;1259;48.306;14.374;2023-07-13T02:17:03;19.40;99.90
2497;DHT22;1259;48.306;14.374;2023-07-13T02:19:30;19.30;99.90
2497;DHT22;1259;48.306;14.374;2023-07-13T02:21:57;19.40;99.90
2497;DHT22;1259;48.306;14.374;2023-07-13T02:24:24;19.40;99.90
2497;DHT22;1259;48.306;14.374;2023-07-13T02:26:52;19.30;99.90
2497;DHT22;1259;48.306;14.374;2023-07-13T02:29:19;19.40;99.90
2497;DHT22;1259;48.306;14.374;2023-07-13T02:31:47;19.30;99.90
2497;DHT22;1259;48.306;14.374;2023-07-13T02:34:14;19.20;99.90
2497;DHT22;1259;48.306;14.374;2023-07-13T02:36:41;19.40;99.90
2497;DHT22;1259;48.306;14.374;2023-07-13T02:39:07;19.30;99.90
2497;DHT22;1259;48.306;14.374;2023-07-13T02:41:35;19.20;99.90
2497;DHT22;1259;48.306;14.374;2023-07-13T02:44:02;19.30;99.90
2497;DHT22;1259;48.306;14.374;2023-07-13T02:46:29;19.30;99.90
2497;DHT22;1259;48.306;14.374;2023-07-13T02:48:57;19.40;99.90
2497;DHT22;1259;48.306;14.374;2023-07-13T02:51:24;19.60;99.90
2497;DHT22;1259;48.306;14.374;2023-07-13T02:53:51;19.70;99.90
2497;DHT22;1259;48.306;14.374;2023-07-13T02:56:19;19.60;99.90
2497;DHT22;1259;48.306;14.374;2023-07-13T02:58:45;19.50;99.90
2497;DHT22;1259;48.306;14.374;2023-07-13T03:01:12;19.40;99.90
2497;DHT22;1259;48.306;14.374;2023-07-13T03:03:44;19.50;99.90
2497;DHT22;1259;48.306;14.374;2023-07-13T03:06:12;19.70;99.90
2497;DHT22;1259;48.306;14.374;2023-07-13T03:08:39;19.70;99.90
2497;DHT22;1259;48.306;14.374;2023-07-13T03:11:07;19.60;99.90
2497;DHT22;1259;48.306;14.374;2023-07-13T03:13:34;19.70;99.90
2497;DHT22;1259;48.306;14.374;2023-07-13T03:16:01;19.70;99.90
2497;DHT22;1259;48.306;14.374;2023-07-13T03:18:28;19.70;99.90
2497;DHT22;1259;48.306;14.374;2023-07-13T03:20:55;19.70;99.90
2497;DHT22;1259;48.306;14.374;2023-07-13T03:23:23;19.70;99.90
2497;DHT22;1259;48.306;14.374;2023-07-13T03:25:50;19.70;99.90
2497;DHT22;1259;48.306;14.374;2023-07-13T03:28:17;19.80;99.90
2497;DHT22;1259;48.306;14.374;2023-07-13T03:30:44;19.70;99.90
2497;DHT22;1259;48.306;14.374;2023-07-13T03:33:10;19.80;99.90
2497;DHT22;1259;48.306;14.374;2023-07-13T03:35:39;19.80;99.90
2497;DHT22;1259;48.306;14.374;2023-07-13T03:38:06;19.70;99.90
2497;DHT22;1259;48.306;14.374;2023-07-13T03:40:35;19.70;99.90
2497;DHT22;1259;48.306;14.374;2023-07-13T03:43:02;19.70;99.90
2497;DHT22;1259;48.306;14.374;2023-07-13T03:45:29;19.70;99.90
2497;DHT22;1259;48.306;14.374;2023-07-13T03:47:55;19.70;99.90
2497;DHT22;1259;48.306;14.374;2023-07-13T03:50:22;19.70;99.90
2497;DHT22;1259;48.306;14.374;2023-07-13T03:52:49;19.70;99.90
2497;DHT22;1259;48.306;14.374;2023-07-13T03:55:16;19.70;99.90
2497;DHT22;1259;48.306;14.374;2023-07-13T03:57:44;19.70;99.90
2497;DHT22;1259;48.306;14.374;2023-07-13T04:00:12;19.80;99.90
2497;DHT22;1259;48.306;14.374;2023-07-13T04:02:39;19.80;99.90
2497;DHT22;1259;48.306;14.374;2023-07-13T04:05:06;19.80;99.90
2497;DHT22;1259;48.306;14.374;2023-07-13T04:07:33;19.80;99.90
2497;DHT22;1259;48.306;14.374;2023-07-13T04:10:00;19.80;99.90
2497;DHT22;1259;48.306;14.374;2023-07-13T04:12:27;19.80;99.90
2497;DHT22;1259;48.306;14.374;2023-07-13T04:14:55;19.80;99.90
2497;DHT22;1259;48.306;14.374;2023-07-13T04:17:22;19.90;99.90
2497;DHT22;1259;48.306;14.374;2023-07-13T04:19:49;19.90;99.90
2497;DHT22;1259;48.306;14.374;2023-07-13T04:22:15;19.90;99.90
2497;DHT22;1259;48.306;14.374;2023-07-13T04:24:42;19.90;99.90
2497;DHT22;1259;48.306;14.374;2023-07-13T04:27:09;19.90;99.90
2497;DHT22;1259;48.306;14.374;2023-07-13T04:29:36;19.90;99.90
2497;DHT22;1259;48.306;14.374;2023-07-13T04:32:05;19.90;99.90
2497;DHT22;1259;48.306;14.374;2023-07-13T04:34:32;19.90;99.90
2497;DHT22;1259;48.306;14.374;2023-07-13T04:37:00;19.90;99.90
2497;DHT22;1259;48.306;14.374;2023-07-13T04:39:27;19.90;99.90
2497;DHT22;1259;48.306;14.374;2023-07-13T04:41:53;19.90;99.90
2497;DHT22;1259;48.306;14.374;2023-07-13T04:44:21;19.90;99.90
2497;DHT22;1259;48.306;14.374;2023-07-13T04:46:48;19.80;99.90
2497;DHT22;1259;48.306;14.374;2023-07-13T04:49:17;19.90;99.90
2497;DHT22;1259;48.306;14.374;2023-07-13T04:51:43;19.80;99.90
2497;DHT22;1259;48.306;14.374;2023-07-13T04:54:10;19.90;99.90
2497;DHT22;1259;48.306;14.374;2023-07-13T04:56:37;19.90;99.90
2497;DHT22;1259;48.306;14.374;2023-07-13T04:59:04;19.90;99.90
2497;DHT22;1259;48.306;14.374;2023-07-13T05:01:31;19.90;99.90
2497;DHT22;1259;48.306;14.374;2023-07-13T05:03:58;19.90;99.90
2497;DHT22;1259;48.306;14.374;2023-07-13T05:06:26;20.00;99.90
2497;DHT22;1259;48.306;14.374;2023-07-13T05:08:53;20.10;99.90
2497;DHT22;1259;48.306;14.374;2023-07-13T05:11:20;20.10;99.90
2497;DHT22;1259;48.306;14.374;2023-07-13T05:13:47;20.20;99.90
2497;DHT22;1259;48.306;14.374;2023-07-13T05:16:14;20.10;99.90
2497;DHT22;1259;48.306;14.374;2023-07-13T05:18:41;20.00;99.90
2497;DHT22;1259;48.306;14.374;2023-07-13T05:21:09;20.00;99.90
2497;DHT22;1259;48.306;14.374;2023-07-13T05:23:39;20.00;99.90
2497;DHT22;1259;48.306;14.374;2023-07-13T05:26:07;20.00;99.90
2497;DHT22;1259;48.306;14.374;2023-07-13T05:28:33;20.00;99.90
2497;DHT22;1259;48.306;14.374;2023-07-13T05:31:00;20.00;99.90
2497;DHT22;1259;48.306;14.374;2023-07-13T05:33:27;20.10;99.90
2497;DHT22;1259;48.306;14.374;2023-07-13T05:35:54;20.00;99.90
2497;DHT22;1259;48.306;14.374;2023-07-13T05:38:21;20.10;99.90
2497;DHT22;1259;48.306;14.374;2023-07-13T05:40:49;20.00;99.90
2497;DHT22;1259;48.306;14.374;2023-07-13T05:43:16;20.00;99.90
2497;DHT22;1259;48.306;14.374;2023-07-13T05:45:43;20.10;99.90
2497;DHT22;1259;48.306;14.374;2023-07-13T05:48:10;20.00;99.90
2497;DHT22;1259;48.306;14.374;2023-07-13T05:50:37;20.00;99.90
2497;DHT22;1259;48.306;14.374;2023-07-13T05:53:04;20.00;99.90
2497;DHT22;1259;48.306;14.374;2023-07-13T05:55:31;20.10;99.90
2497;DHT22;1259;48.306;14.374;2023-07-13T05:58:00;20.10;99.90
2497;DHT22;1259;48.306;14.374;2023-07-13T06:00:27;20.10;99.90
2497;DHT22;1259;48.306;14.374;2023-07-13T06:02:55;20.40;99.90
2497;DHT22;1259;48.306;14.374;2023-07-13T06:05:22;20.40;99.90
2497;DHT22;1259;48.306;14.374;2023-07-13T06:07:49;20.40;99.90
2497;DHT22;1259;48.306;14.374;2023-07-13T06:10:16;20.30;99.90
2497;DHT22;1259;48.306;14.374;2023-07-13T06:12:43;20.40;99.90
2497;DHT22;1259;48.306;14.374;2023-07-13T06:15:11;20.40;99.90
2497;DHT22;1259;48.306;14.374;2023-07-13T06:17:38;20.30;99.90
2497;DHT22;1259;48.306;14.374;2023-07-13T06:20:05;20.30;99.90
2497;DHT22;1259;48.306;14.374;2023-07-13T06:22:33;20.10;99.90
2497;DHT22;1259;48.306;14.374;2023-07-13T06:24:59;20.20;99.90
2497;DHT22;1259;48.306;14.374;2023-07-13T06:27:26;20.20;99.90
2497;DHT22;1259;48.306;14.374;2023-07-13T06:29:53;20.20;99.90
2497;DHT22;1259;48.306;14.374;2023-07-13T06:32:21;20.20;99.90
2497;DHT22;1259;48.306;14.374;2023-07-13T06:34:48;20.20;99.90
2497;DHT22;1259;48.306;14.374;2023-07-13T06:37:17;20.10;99.90
2497;DHT22;1259;48.306;14.374;2023-07-13T06:39:44;20.00;99.90
2497;DHT22;1259;48.306;14.374;2023-07-13T06:42:10;20.10;99.90
2497;DHT22;1259;48.306;14.374;2023-07-13T06:44:37;19.90;99.90
2497;DHT22;1259;48.306;14.374;2023-07-13T06:47:04;19.90;99.90
2497;DHT22;1259;48.306;14.374;2023-07-13T06:49:33;20.00;99.90
2497;DHT22;1259;48.306;14.374;2023-07-13T06:52:00;20.00;99.90
2497;DHT22;1259;48.306;14.374;2023-07-13T06:54:27;20.10;99.90
2497;DHT22;1259;48.306;14.374;2023-07-13T06:56:54;20.00;99.90
2497;DHT22;1259;48.306;14.374;2023-07-13T06:59:20;20.20;99.90
2497;DHT22;1259;48.306;14.374;2023-07-13T07:01:47;20.20;99.90
2497;DHT22;1259;48.306;14.374;2023-07-13T07:04:14;20.20;99.90
2497;DHT22;1259;48.306;14.374;2023-07-13T07:06:42;20.20;99.90
2497;DHT22;1259;48.306;14.374;2023-07-13T07:09:09;20.10;99.90
2497;DHT22;1259;48.306;14.374;2023-07-13T07:11:36;20.00;99.90
2497;DHT22;1259;48.306;14.374;2023-07-13T07:14:03;20.00;99.90
2497;DHT22;1259;48.306;14.374;2023-07-13T07:16:30;19.90;99.90
2497;DHT22;1259;48.306;14.374;2023-07-13T07:18:57;20.00;99.90
2497;DHT22;1259;48.306;14.374;2023-07-13T07:21:24;20.10;99.90
2497;DHT22;1259;48.306;14.374;2023-07-13T07:23:52;20.00;99.90
2497;DHT22;1259;48.306;14.374;2023-07-13T07:26:19;20.10;99.90
2497;DHT22;1259;48.306;14.374;2023-07-13T07:28:46;20.10;99.90
2497;DHT22;1259;48.306;14.374;2023-07-13T07:31:13;20.10;99.90
2497;DHT22;1259;48.306;14.374;2023-07-13T07:33:40;20.20;99.90
2497;DHT22;1259;48.306;14.374;2023-07-13T07:36:07;20.20;99.90
2497;DHT22;1259;48.306;14.374;2023-07-13T07:38:34;20.40;99.90
2497;DHT22;1259;48.306;14.374;2023-07-13T07:41:04;20.50;99.90
2497;DHT22;1259;48.306;14.374;2023-07-13T07:43:31;20.80;99.90
2497;DHT22;1259;48.306;14.374;2023-07-13T07:45:58;20.70;99.90
2497;DHT22;1259;48.306;14.374;2023-07-13T07:48:24;20.80;99.90
2497;DHT22;1259;48.306;14.374;2023-07-13T07:50:51;20.70;99.90
2497;DHT22;1259;48.306;14.374;2023-07-13T07:53:18;20.80;99.90
2497;DHT22;1259;48.306;14.374;2023-07-13T07:55:45;20.90;99.90
2497;DHT22;1259;48.306;14.374;2023-07-13T07:58:14;21.10;99.90
2497;DHT22;1259;48.306;14.374;2023-07-13T08:00:41;21.10;99.90
2497;DHT22;1259;48.306;14.374;2023-07-13T08:03:08;21.00;99.90
2497;DHT22;1259;48.306;14.374;2023-07-13T08:05:35;21.00;99.90
2497;DHT22;1259;48.306;14.374;2023-07-13T08:08:02;21.30;99.90
2497;DHT22;1259;48.306;14.374;2023-07-13T08:10:29;21.30;99.90
2497;DHT22;1259;48.306;14.374;2023-07-13T08:12:56;21.50;99.90
2497;DHT22;1259;48.306;14.374;2023-07-13T08:15:25;21.40;99.90
2497;DHT22;1259;48.306;14.374;2023-07-13T08:17:51;21.40;99.90
2497;DHT22;1259;48.306;14.374;2023-07-13T08:20:18;21.50;99.90
2497;DHT22;1259;48.306;14.374;2023-07-13T08:22:45;21.50;99.90
2497;DHT22;1259;48.306;14.374;2023-07-13T08:25:12;21.50;99.90
2497;DHT22;1259;48.306;14.374;2023-07-13T08:27:39;21.40;99.90
2497;DHT22;1259;48.306;14.374;2023-07-13T08:30:06;21.40;99.90
2497;DHT22;1259;48.306;14.374;2023-07-13T08:32:35;21.60;99.90
2497;DHT22;1259;48.306;14.374;2023-07-13T08:35:03;21.70;99.90
2497;DHT22;1259;48.306;14.374;2023-07-13T08:37:29;21.60;99.90
2497;DHT22;1259;48.306;14.374;2023-07-13T08:39:56;21.60;99.90
2497;DHT22;1259;48.306;14.374;2023-07-13T08:42:27;21.50;99.90
2497;DHT22;1259;48.306;14.374;2023-07-13T08:44:57;21.50;99.90
2497;DHT22;1259;48.306;14.374;2023-07-13T08:47:25;21.40;99.90
2497;DHT22;1259;48.306;14.374;2023-07-13T08:49:54;21.40;99.90
2497;DHT22;1259;48.306;14.374;2023-07-13T08:52:26;21.50;99.90
2497;DHT22;1259;48.306;14.374;2023-07-13T08:54:55;21.50;99.90
2497;DHT22;1259;48.306;14.374;2023-07-13T08:57:24;21.30;99.90
2497;DHT22;1259;48.306;14.374;2023-07-13T08:59:55;21.30;99.90
2497;DHT22;1259;48.306;14.374;2023-07-13T09:02:26;21.40;99.90
2497;DHT22;1259;48.306;14.374;2023-07-13T09:04:54;21.40;99.90
2497;DHT22;1259;48.306;14.374;2023-07-13T09:07:28;21.50;99.90
2497;DHT22;1259;48.306;14.374;2023-07-13T09:09:58;21.50;99.90
2497;DHT22;1259;48.306;14.374;2023-07-13T09:12:31;21.60;99.90
2497;DHT22;1259;48.306;14.374;2023-07-13T09:15:02;21.60;99.90
2497;DHT22;1259;48.306;14.374;2023-07-13T09:17:32;21.60;99.90
2497;DHT22;1259;48.306;14.374;2023-07-13T09:20:04;21.70;99.90
2497;DHT22;1259;48.306;14.374;2023-07-13T09:22:35;21.70;99.90
2497;DHT22;1259;48.306;14.374;2023-07-13T09:25:04;21.60;99.90
2497;DHT22;1259;48.306;14.374;2023-07-13T09:27:34;21.70;99.90
2497;DHT22;1259;48.306;14.374;2023-07-13T09:30:04;21.70;99.90
2497;DHT22;1259;48.306;14.374;2023-07-13T09:32:36;21.70;99.90
2497;DHT22;1259;48.306;14.374;2023-07-13T09:35:07;21.80;99.90
2497;DHT22;1259;48.306;14.374;2023-07-13T09:37:36;21.50;99.90
2497;DHT22;1259;48.306;14.374;2023-07-13T09:40:08;21.70;99.90
2497;DHT22;1259;48.306;14.374;2023-07-13T09:42:37;21.70;99.90
2497;DHT22;1259;48.306;14.374;2023-07-13T09:45:04;21.70;99.90
2497;DHT22;1259;48.306;14.374;2023-07-13T09:47:33;21.90;99.90
2497;DHT22;1259;48.306;14.374;2023-07-13T09:50:08;22.00;99.90
2497;DHT22;1259;48.306;14.374;2023-07-13T09:52:42;22.00;99.90
2497;DHT22;1259;48.306;14.374;2023-07-13T09:55:22;21.90;99.90
2497;DHT22;1259;48.306;14.374;2023-07-13T09:57:49;22.00;99.90
2497;DHT22;1259;48.306;14.374;2023-07-13T10:00:22;21.90;99.90
2497;DHT22;1259;48.306;14.374;2023-07-13T10:02:57;22.00;99.90
2497;DHT22;1259;48.306;14.374;2023-07-13T10:05:26;22.00;99.90
2497;DHT22;1259;48.306;14.374;2023-07-13T10:07:53;22.00;99.90
2497;DHT22;1259;48.306;14.374;2023-07-13T10:10:23;22.00;99.90
2497;DHT22;1259;48.306;14.374;2023-07-13T10:12:50;22.00;99.90
2497;DHT22;1259;48.306;14.374;2023-07-13T10:15:18;22.10;99.90
2497;DHT22;1259;48.306;14.374;2023-07-13T10:17:45;22.10;99.90
2497;DHT22;1259;48.306;14.374;2023-07-13T10:20:12;22.10;99.90
2497;DHT22;1259;48.306;14.374;2023-07-13T10:22:42;22.10;99.90
2497;DHT22;1259;48.306;14.374;2023-07-13T10:25:14;22.20;99.90
2497;DHT22;1259;48.306;14.374;2023-07-13T10:27:42;22.30;99.90
2497;DHT22;1259;48.306;14.374;2023-07-13T10:30:11;22.20;99.90
2497;DHT22;1259;48.306;14.374;2023-07-13T10:32:39;22.20;99.90
2497;DHT22;1259;48.306;14.374;2023-07-13T10:35:08;22.50;99.90
2497;DHT22;1259;48.306;14.374;2023-07-13T10:37:36;22.40;99.90
2497;DHT22;1259;48.306;14.374;2023-07-13T10:40:11;22.30;99.90
2497;DHT22;1259;48.306;14.374;2023-07-13T10:42:40;22.30;99.90
2497;DHT22;1259;48.306;14.374;2023-07-13T10:45:12;22.20;99.90
2497;DHT22;1259;48.306;14.374;2023-07-13T10:47:39;22.30;99.90
2497;DHT22;1259;48.306;14.374;2023-07-13T10:50:07;22.40;99.90
2497;DHT22;1259;48.306;14.374;2023-07-13T10:52:41;22.20;99.90
2497;DHT22;1259;48.306;14.374;2023-07-13T10:57:52;22.10;99.90
2497;DHT22;1259;48.306;14.374;2023-07-13T11:00:19;22.10;99.90
2497;DHT22;1259;48.306;14.374;2023-07-13T11:02:55;22.20;99.90
2497;DHT22;1259;48.306;14.374;2023-07-13T11:05:26;22.20;99.90
2497;DHT22;1259;48.306;14.374;2023-07-13T11:07:55;22.40;99.90
2497;DHT22;1259;48.306;14.374;2023-07-13T11:13:55;22.10;99.90
2497;DHT22;1259;48.306;14.374;2023-07-13T11:16:34;21.90;99.90
2497;DHT22;1259;48.306;14.374;2023-07-13T11:22:01;22.20;99.90
2497;DHT22;1259;48.306;14.374;2023-07-13T11:24:28;22.10;99.90
2497;DHT22;1259;48.306;14.374;2023-07-13T11:26:56;22.00;99.90
2497;DHT22;1259;48.306;14.374;2023-07-13T11:29:31;22.20;99.90
2497;DHT22;1259;48.306;14.374;2023-07-13T11:31:59;22.30;99.90
2497;DHT22;1259;48.306;14.374;2023-07-13T11:34:27;22.30;99.90
2497;DHT22;1259;48.306;14.374;2023-07-13T11:36:55;22.50;99.90
2497;DHT22;1259;48.306;14.374;2023-07-13T11:39:24;22.40;99.90
2497;DHT22;1259;48.306;14.374;2023-07-13T11:41:53;22.60;99.90
2497;DHT22;1259;48.306;14.374;2023-07-13T11:44:23;22.40;99.90
2497;DHT22;1259;48.306;14.374;2023-07-13T11:46:52;22.50;99.90
2497;DHT22;1259;48.306;14.374;2023-07-13T11:49:20;22.60;99.90
2497;DHT22;1259;48.306;14.374;2023-07-13T11:51:47;22.60;99.90
2497;DHT22;1259;48.306;14.374;2023-07-13T11:54:26;22.60;99.90
2497;DHT22;1259;48.306;14.374;2023-07-13T11:56:55;22.70;99.90
2497;DHT22;1259;48.306;14.374;2023-07-13T11:59:23;22.90;99.90
2497;DHT22;1259;48.306;14.374;2023-07-13T12:01:52;22.60;99.90
2497;DHT22;1259;48.306;14.374;2023-07-13T12:04:21;22.70;99.90
2497;DHT22;1259;48.306;14.374;2023-07-13T12:06:54;22.60;99.90
2497;DHT22;1259;48.306;14.374;2023-07-13T12:09:21;22.90;99.90
2497;DHT22;1259;48.306;14.374;2023-07-13T12:11:50;22.90;99.90
2497;DHT22;1259;48.306;14.374;2023-07-13T12:14:18;23.10;99.90
2497;DHT22;1259;48.306;14.374;2023-07-13T12:16:46;23.50;99.90
2497;DHT22;1259;48.306;14.374;2023-07-13T12:19:16;23.30;99.90
2497;DHT22;1259;48.306;14.374;2023-07-13T12:21:44;23.30;99.90
2497;DHT22;1259;48.306;14.374;2023-07-13T12:24:13;23.10;99.90
2497;DHT22;1259;48.306;14.374;2023-07-13T12:26:41;23.20;99.90
2497;DHT22;1259;48.306;14.374;2023-07-13T12:29:07;23.00;99.90
2497;DHT22;1259;48.306;14.374;2023-07-13T12:31:35;23.20;99.90
2497;DHT22;1259;48.306;14.374;2023-07-13T12:34:07;23.70;99.90
2497;DHT22;1259;48.306;14.374;2023-07-13T12:36:36;23.90;99.90
2497;DHT22;1259;48.306;14.374;2023-07-13T12:39:12;24.00;99.90
2497;DHT22;1259;48.306;14.374;2023-07-13T12:41:39;24.20;99.90
2497;DHT22;1259;48.306;14.374;2023-07-13T12:44:09;23.90;99.90
2497;DHT22;1259;48.306;14.374;2023-07-13T12:46:37;24.00;99.90
2497;DHT22;1259;48.306;14.374;2023-07-13T12:49:05;24.10;99.90
2497;DHT22;1259;48.306;14.374;2023-07-13T12:51:35;24.10;99.90
2497;DHT22;1259;48.306;14.374;2023-07-13T12:54:08;24.00;99.90
2497;DHT22;1259;48.306;14.374;2023-07-13T12:56:39;24.00;99.90
2497;DHT22;1259;48.306;14.374;2023-07-13T12:59:05;24.00;99.90
2497;DHT22;1259;48.306;14.374;2023-07-13T13:01:35;23.90;99.90
2497;DHT22;1259;48.306;14.374;2023-07-13T13:04:03;23.80;99.90
2497;DHT22;1259;48.306;14.374;2023-07-13T13:06:32;23.90;99.90
2497;DHT22;1259;48.306;14.374;2023-07-13T13:09:03;24.00;99.90
2497;DHT22;1259;48.306;14.374;2023-07-13T13:11:30;24.10;99.90
2497;DHT22;1259;48.306;14.374;2023-07-13T13:13:58;24.10;99.90
2497;DHT22;1259;48.306;14.374;2023-07-13T13:16:29;24.10;99.90
2497;DHT22;1259;48.306;14.374;2023-07-13T13:18:57;24.00;99.90
2497;DHT22;1259;48.306;14.374;2023-07-13T13:21:25;24.10;99.90
2497;DHT22;1259;48.306;14.374;2023-07-13T13:23:52;24.00;99.90
2497;DHT22;1259;48.306;14.374;2023-07-13T13:26:21;24.00;99.90
2497;DHT22;1259;48.306;14.374;2023-07-13T13:28:48;24.00;99.90
2497;DHT22;1259;48.306;14.374;2023-07-13T13:31:15;23.90;99.90
2497;DHT22;1259;48.306;14.374;2023-07-13T13:33:43;24.10;99.90
2497;DHT22;1259;48.306;14.374;2023-07-13T13:36:14;24.10;99.90
2497;DHT22;1259;48.306;14.374;2023-07-13T13:38:42;24.00;99.90
2497;DHT22;1259;48.306;14.374;2023-07-13T13:41:09;23.80;99.90
2497;DHT22;1259;48.306;14.374;2023-07-13T13:43:38;23.80;99.90
2497;DHT22;1259;48.306;14.374;2023-07-13T13:46:09;23.70;99.90
2497;DHT22;1259;48.306;14.374;2023-07-13T13:48:38;23.70;99.90
2497;DHT22;1259;48.306;14.374;2023-07-13T13:51:13;23.80;99.90
2497;DHT22;1259;48.306;14.374;2023-07-13T13:53:40;23.80;99.90
2497;DHT22;1259;48.306;14.374;2023-07-13T13:56:08;23.80;99.90
2497;DHT22;1259;48.306;14.374;2023-07-13T13:58:34;24.00;99.90
2497;DHT22;1259;48.306;14.374;2023-07-13T14:01:03;24.00;99.90
2497;DHT22;1259;48.306;14.374;2023-07-13T14:03:33;24.10;99.90
2497;DHT22;1259;48.306;14.374;2023-07-13T14:06:00;24.00;99.90
2497;DHT22;1259;48.306;14.374;2023-07-13T14:08:27;24.10;99.90
2497;DHT22;1259;48.306;14.374;2023-07-13T14:10:55;24.00;99.90
2497;DHT22;1259;48.306;14.374;2023-07-13T14:13:28;24.10;99.90
2497;DHT22;1259;48.306;14.374;2023-07-13T14:15:57;24.00;99.90
2497;DHT22;1259;48.306;14.374;2023-07-13T14:18:26;23.90;99.90
2497;DHT22;1259;48.306;14.374;2023-07-13T14:20:53;23.90;99.90
2497;DHT22;1259;48.306;14.374;2023-07-13T14:23:20;23.90;99.90
2497;DHT22;1259;48.306;14.374;2023-07-13T14:25:46;23.80;99.90
2497;DHT22;1259;48.306;14.374;2023-07-13T14:28:21;24.10;99.90
2497;DHT22;1259;48.306;14.374;2023-07-13T14:30:49;24.10;99.90
2497;DHT22;1259;48.306;14.374;2023-07-13T14:33:16;24.00;99.90
2497;DHT22;1259;48.306;14.374;2023-07-13T14:35:45;24.10;99.90
2497;DHT22;1259;48.306;14.374;2023-07-13T14:38:12;24.10;99.90
2497;DHT22;1259;48.306;14.374;2023-07-13T14:40:40;24.20;99.90
2497;DHT22;1259;48.306;14.374;2023-07-13T14:43:09;24.00;99.90
2497;DHT22;1259;48.306;14.374;2023-07-13T14:45:36;24.00;99.90
2497;DHT22;1259;48.306;14.374;2023-07-13T14:48:08;23.90;99.90
2497;DHT22;1259;48.306;14.374;2023-07-13T14:50:36;24.00;99.90
2497;DHT22;1259;48.306;14.374;2023-07-13T14:53:07;24.00;99.90
2497;DHT22;1259;48.306;14.374;2023-07-13T14:55:35;23.80;99.90
2497;DHT22;1259;48.306;14.374;2023-07-13T14:58:02;23.80;99.90
2497;DHT22;1259;48.306;14.374;2023-07-13T15:00:29;24.00;99.90
2497;DHT22;1259;48.306;14.374;2023-07-13T15:02:57;23.90;99.90
2497;DHT22;1259;48.306;14.374;2023-07-13T15:05:25;23.90;99.90
2497;DHT22;1259;48.306;14.374;2023-07-13T15:07:53;23.90;99.90
2497;DHT22;1259;48.306;14.374;2023-07-13T15:10:22;23.90;99.90
2497;DHT22;1259;48.306;14.374;2023-07-13T15:12:50;23.90;99.90
2497;DHT22;1259;48.306;14.374;2023-07-13T15:15:17;23.90;99.90
2497;DHT22;1259;48.306;14.374;2023-07-13T15:17:44;24.00;99.90
2497;DHT22;1259;48.306;14.374;2023-07-13T15:20:16;24.00;99.90
2497;DHT22;1259;48.306;14.374;2023-07-13T15:22:44;24.00;99.90
2497;DHT22;1259;48.306;14.374;2023-07-13T15:25:13;23.90;99.90
2497;DHT22;1259;48.306;14.374;2023-07-13T15:27:42;23.90;99.90
2497;DHT22;1259;48.306;14.374;2023-07-13T15:30:09;23.90;99.90
2497;DHT22;1259;48.306;14.374;2023-07-13T15:32:36;23.90;99.10
2497;DHT22;1259;48.306;14.374;2023-07-13T15:35:02;23.90;98.60
2497;DHT22;1259;48.306;14.374;2023-07-13T15:37:29;23.80;98.80
2497;DHT22;1259;48.306;14.374;2023-07-13T15:39:56;23.80;98.30
2497;DHT22;1259;48.306;14.374;2023-07-13T15:42:23;23.70;98.00
2497;DHT22;1259;48.306;14.374;2023-07-13T15:44:51;23.80;99.00
2497;DHT22;1259;48.306;14.374;2023-07-13T15:47:18;23.60;98.00
2497;DHT22;1259;48.306;14.374;2023-07-13T15:49:45;23.50;97.80
2497;DHT22;1259;48.306;14.374;2023-07-13T15:52:16;23.60;98.30
2497;DHT22;1259;48.306;14.374;2023-07-13T15:54:43;23.60;98.20
2497;DHT22;1259;48.306;14.374;2023-07-13T15:57:10;23.50;97.60
2497;DHT22;1259;48.306;14.374;2023-07-13T15:59:37;23.50;96.40
2497;DHT22;1259;48.306;14.374;2023-07-13T16:02:10;23.50;97.10